CYRQ

Trois-Rivieres Airport

Trois-Rivieres, , Canada
METAR CYRQ 221800Z AUTO 21008KT 180V270 9SM CLR 10/M06 A3036 RMK SLP286
Observed Flight Rules
Apr-22 @ 18:00 UTC (23 minutes ago) Visual Flight Rules
Wind Visibility Clouds
210° at 8 knots 9 miles
  • Clear skies
Temperatures Readings
Current 10°C / 50°F
Dewpoint -6°C / 21°F
Humidity 32%
Altimeter 30.36" Hg
Pressure 1028.6 hPa
Elevation 61
METAR CYRQ 221800Z AUTO 21008KT 180V270 9SM CLR 10/M06 A3036 RMK SLP286
Observed Flight Rules
Apr-22 @ 18:00 UTC
(23 minutes ago)
VFR
Wind Visibility
210° at 8 knots 9 miles
Clouds
  • Clear skies
Temperature Dewpoint
10°C / 50°F -6°C / 21°F
Humidity Altimeter Pressure
32% 30.36" Hg 1028.6 hPa